Time;durP1;ratioP1;P1;durP2;ratioP2;P2;SDS_P1;SDS_P2;PMS_P1;PMS_P2;Temp;Humidity;BMP_temperature;BMP_pressure;BME280_temperature;BME280_humidity;BME280_pressure;Samples;Min_cycle;Max_cycle;Signal;HPM_P1;HPM_P2
2022/02/02 00:02:23;;;;;;;;;;;8.80;99.90;;;7.24;100.00;100272.75;5068308;28;20465;-85
2022/02/02 00:04:56;;;;;;;;;;;9.00;99.90;;;7.28;100.00;100268.69;5069566;28;19929;-85
2022/02/02 00:07:34;;;;;;;;;;;8.90;99.90;;;7.31;100.00;100294.56;5069938;28;19951;-85
2022/02/02 00:10:09;;;;;;;;;;;8.90;99.90;;;7.31;100.00;100295.44;5069625;28;20452;-85
2022/02/02 00:12:43;;;;;;;;;;;8.90;99.90;;;7.27;100.00;100304.06;5068018;28;20739;-85
2022/02/02 00:15:34;;;;;;;;;;;8.90;99.90;;;7.23;100.00;100312.53;5069775;28;20043;-84
2022/02/02 00:18:16;;;;;;;;;;;8.90;99.90;;;7.30;100.00;100304.56;5050293;28;19935;-85
2022/02/02 00:20:53;;;;;;;;;;;8.90;99.90;;;7.32;100.00;100307.94;5049760;28;19935;-85
2022/02/02 00:23:27;;;;;;;;;;;8.90;99.90;;;7.29;100.00;100305.59;5064361;28;20023;-84
2022/02/02 00:25:59;;;;;;;;;;;8.90;99.90;;;7.29;100.00;100313.72;5069680;28;19924;-86
2022/02/02 00:28:30;;;;;;;;;;;8.90;99.90;;;7.29;100.00;100305.59;5069213;28;19928;-85
2022/02/02 00:31:02;;;;;;;;;;;8.90;99.90;;;7.26;100.00;100313.19;5068291;28;19943;-85
2022/02/02 00:33:32;;;;;;;;;;;8.90;99.90;;;7.26;100.00;100313.19;5064038;28;19932;-85
2022/02/02 00:36:05;;;;;;;;;;;8.90;99.90;;;7.21;100.00;100319.09;5049637;28;19931;-85
2022/02/02 00:38:33;;;;;;;;;;;9.00;99.90;;;7.15;100.00;100322.47;5049346;28;19982;-87
2022/02/02 00:41:00;;;;;;;;;;;8.90;99.90;;;7.14;100.00;100323.47;5052173;28;20041;-87
2022/02/02 00:43:27;;;;;;;;;;;8.80;99.90;;;7.06;100.00;100329.72;5067698;28;19932;-87
2022/02/02 00:45:54;;;;;;;;;;;8.80;99.90;;;7.00;100.00;100328.53;5069576;28;19978;-87
2022/02/02 00:48:26;;;;;;;;;;;8.70;99.90;;;6.97;100.00;100331.59;5068965;28;19935;-87
2022/02/02 00:50:53;;;;;;;;;;;8.70;99.90;;;6.94;100.00;100334.63;5068093;28;19929;-87
2022/02/02 00:53:21;;;;;;;;;;;8.70;99.90;;;6.89;100.00;100345.06;5067512;28;20450;-87
2022/02/02 00:55:50;;;;;;;;;;;8.70;99.90;;;6.83;100.00;100349.31;5069342;28;19971;-88
2022/02/02 00:58:17;;;;;;;;;;;8.70;99.90;;;6.84;100.00;100340.16;5069084;28;20051;-88
2022/02/02 01:00:45;;;;;;;;;;;8.60;99.90;;;6.83;100.00;100340.34;5069251;28;20388;-87
2022/02/02 01:03:12;;;;;;;;;;;8.60;99.90;;;6.87;100.00;100341.69;5067496;28;20396;-87
2022/02/02 01:05:39;;;;;;;;;;;8.60;99.90;;;6.82;100.00;100344.91;5068794;28;19967;-87
2022/02/02 01:10:57;;;;;;;;;;;8.60;99.90;;;6.80;100.00;100356.91;5064430;28;19928;-87
2022/02/02 01:14:24;;;;;;;;;;;8.60;99.90;;;6.83;100.00;100351.16;5067616;28;19928;-87
2022/02/02 01:19:27;;;;;;;;;;;8.60;99.90;;;6.74;100.00;100330.50;5039779;28;19924;-87
2022/02/02 01:21:59;;;;;;;;;;;8.60;99.90;;;6.76;100.00;100340.16;5055810;28;19935;-88
2022/02/02 01:30:06;;;;;;;;;;;8.60;99.90;;;6.79;100.00;100355.19;5072220;28;20027;-88
2022/02/02 01:32:33;;;;;;;;;;;8.60;99.90;;;6.75;100.00;100348.44;5070838;28;19933;-87
2022/02/02 01:35:04;;;;;;;;;;;8.60;99.90;;;6.78;100.00;100353.53;5072432;28;19989;-87
2022/02/02 01:37:31;;;;;;;;;;;8.60;99.90;;;6.76;100.00;100352.81;5072603;28;20285;-87
2022/02/02 01:40:03;;;;;;;;;;;8.60;99.90;;;6.82;100.00;100354.88;5072186;28;20025;-87
2022/02/02 01:42:40;;;;;;;;;;;8.60;99.90;;;6.82;100.00;100347.59;5072499;28;20604;-87
2022/02/02 01:45:14;;;;;;;;;;;8.60;99.90;;;6.86;100.00;100356.25;5072736;28;19928;-87
2022/02/02 01:47:51;;;;;;;;;;;8.60;99.90;;;6.82;100.00;100344.06;5072627;28;19929;-88
2022/02/02 01:50:23;;;;;;;;;;;8.60;99.90;;;6.90;100.00;100363.00;5072116;28;20350;-87
2022/02/02 01:53:07;;;;;;;;;;;8.60;99.90;;;6.89;100.00;100369.41;5072703;28;19924;-87
2022/02/02 01:55:39;;;;;;;;;;;8.60;99.90;;;6.92;100.00;100370.97;5072753;28;19928;-88
2022/02/02 01:58:21;;;;;;;;;;;8.60;99.90;;;6.95;100.00;100371.50;5072130;28;19931;-87
2022/02/02 02:00:48;;;;;;;;;;;8.60;99.90;;;6.95;100.00;100382.31;5072145;28;19939;-88
2022/02/02 02:03:15;;;;;;;;;;;8.60;99.90;;;6.98;100.00;100373.00;5070854;28;19931;-87
2022/02/02 02:05:42;;;;;;;;;;;8.60;99.90;;;6.90;100.00;100379.25;5072125;28;19967;-87
2022/02/02 02:08:09;;;;;;;;;;;8.60;99.90;;;6.94;100.00;100379.78;5072160;28;19934;-88
2022/02/02 02:10:36;;;;;;;;;;;8.70;99.90;;;6.95;100.00;100386.84;5071934;28;20023;-87
2022/02/02 02:13:09;;;;;;;;;;;8.70;99.90;;;6.96;100.00;100386.69;5072043;28;19972;-87
2022/02/02 02:15:37;;;;;;;;;;;8.60;99.90;;;6.96;100.00;100389.41;5066501;28;19931;-87
2022/02/02 02:18:05;;;;;;;;;;;8.70;99.90;;;6.99;100.00;100389.09;5051700;28;19928;-87
2022/02/02 02:20:32;;;;;;;;;;;8.70;99.90;;;7.00;100.00;100392.63;5050297;28;19935;-87
2022/02/02 02:23:00;;;;;;;;;;;8.70;99.90;;;6.99;100.00;100391.78;5051939;28;19968;-87
2022/02/02 02:25:30;;;;;;;;;;;8.70;99.90;;;6.96;100.00;100392.09;5051973;28;20027;-84
2022/02/02 02:28:07;;;;;;;;;;;8.70;99.90;;;6.98;100.00;100387.38;5064354;28;19932;-84
2022/02/02 02:30:45;;;;;;;;;;;8.70;99.90;;;6.97;100.00;100391.13;5071841;28;19934;-85
2022/02/02 02:33:35;;;;;;;;;;;8.70;99.90;;;6.97;100.00;100363.22;5071857;28;20023;-85
2022/02/02 02:58:01;;;;;;;;;;;8.60;99.90;;;6.97;100.00;100423.59;5070509;28;20014;-85
2022/02/02 03:30:54;;;;;;;;;;;8.70;99.90;;;7.00;100.00;100407.00;5068827;28;20285;-87
2022/02/02 03:55:25;;;;;;;;;;;8.70;99.90;;;6.98;100.00;100421.72;5070091;28;20110;-87
2022/02/02 03:58:09;;;;;;;;;;;8.70;99.90;;;6.94;100.00;100423.91;5069954;28;19952;-87
2022/02/02 04:00:44;;;;;;;;;;;8.70;99.90;;;6.96;100.00;100424.56;5070043;28;19928;-85
2022/02/02 04:03:36;;;;;;;;;;;8.70;99.90;;;6.91;100.00;100437.75;5069893;28;20019;-87
2022/02/02 04:06:07;;;;;;;;;;;8.70;99.90;;;6.94;100.00;100436.59;5069562;28;20418;-87
2022/02/02 04:08:36;;;;;;;;;;;8.70;99.90;;;6.95;100.00;100420.19;5069705;28;19928;-87
2022/02/02 04:11:12;;;;;;;;;;;8.70;99.90;;;6.96;100.00;100421.03;5070090;28;20024;-88
2022/02/02 04:39:07;;;;;;;;;;;8.60;99.90;;;6.88;100.00;100434.53;5069137;28;19928;-88
2022/02/02 04:53:27;;;;;;;;;;;8.60;99.90;;;6.87;100.00;100447.19;5055144;28;20015;-88
2022/02/02 04:55:52;;;;;;;;;;;8.60;99.90;;;6.81;100.00;100450.56;5055807;28;20415;-87
2022/02/02 04:58:30;;;;;;;;;;;8.60;99.90;;;6.81;100.00;100437.03;5055780;28;20682;-88
2022/02/02 05:06:43;;;;;;;;;;;8.60;99.90;;;6.91;100.00;100459.41;5051749;28;19929;-87
2022/02/02 05:09:27;;;;;;;;;;;8.60;99.90;;;6.88;100.00;100462.44;5055323;28;19940;-88
2022/02/02 05:17:40;;;;;;;;;;;8.60;99.90;;;6.92;100.00;100463.78;5054132;28;20395;-88
2022/02/02 05:50:34;;;;;;;;;;;8.60;99.90;;;6.90;100.00;100540.72;5053050;28;20304;-87
2022/02/02 05:53:02;;;;;;;;;;;8.60;99.90;;;6.89;100.00;100534.44;5055264;28;19929;-88
2022/02/02 05:55:34;;;;;;;;;;;8.60;99.90;;;6.88;100.00;100549.00;5055161;28;19932;-87
2022/02/02 05:58:02;;;;;;;;;;;8.60;99.90;;;6.81;100.00;100548.75;5055181;28;19928;-87
2022/02/02 06:00:29;;;;;;;;;;;8.60;99.90;;;6.70;100.00;100556.31;5055179;28;19968;-87
2022/02/02 06:03:01;;;;;;;;;;;8.60;99.90;;;6.63;100.00;100566.91;5069095;28;20729;-87
2022/02/02 06:05:29;;;;;;;;;;;8.60;99.90;;;6.64;100.00;100563.19;5051972;28;19925;-87
2022/02/02 06:07:56;;;;;;;;;;;8.50;99.90;;;6.63;100.00;100566.91;5051887;28;19935;-87
2022/02/02 06:10:27;;;;;;;;;;;8.50;99.90;;;6.59;100.00;100555.56;5051816;28;19982;-87
2022/02/02 06:12:57;;;;;;;;;;;8.50;99.90;;;6.64;100.00;100560.50;5052061;28;20019;-87
2022/02/02 06:15:24;;;;;;;;;;;8.50;99.90;;;6.62;99.83;100563.34;5055628;28;20408;-87
2022/02/02 06:17:53;;;;;;;;;;;8.40;99.90;;;6.58;99.92;100563.84;5071788;28;20562;-87
2022/02/02 06:20:20;;;;;;;;;;;8.40;99.90;;;6.56;99.68;100563.97;5071353;28;19935;-85
2022/02/02 06:22:53;;;;;;;;;;;8.40;99.90;;;6.54;100.00;100566.00;5070544;28;19944;-89
2022/02/02 06:25:28;;;;;;;;;;;8.40;99.90;;;6.59;99.40;100566.38;5072162;28;19935;-88
2022/02/02 06:28:01;;;;;;;;;;;8.40;99.90;;;6.62;99.21;100560.63;5070165;28;19990;-87
2022/02/02 06:30:29;;;;;;;;;;;8.40;99.90;;;6.63;99.84;100570.47;5068411;28;19928;-90
2022/02/02 06:33:03;;;;;;;;;;;8.40;99.90;;;6.71;100.00;100569.66;5071539;28;19928;-89
2022/02/02 06:35:31;;;;;;;;;;;8.40;99.90;;;6.68;100.00;100583.50;5071437;28;20016;-88
2022/02/02 06:37:58;;;;;;;;;;;8.40;99.90;;;6.64;100.00;100577.59;5070209;28;19928;-87
2022/02/02 06:40:26;;;;;;;;;;;8.40;99.90;;;6.61;100.00;100575.19;5071490;28;19935;-87
2022/02/02 06:42:53;;;;;;;;;;;8.40;99.90;;;6.65;100.00;100576.56;5071723;28;19929;-88
2022/02/02 06:45:23;;;;;;;;;;;8.40;99.90;;;6.69;100.00;100581.66;5071577;28;20412;-86
2022/02/02 06:47:50;;;;;;;;;;;8.40;99.90;;;6.72;100.00;100590.31;5069953;28;20129;-89
2022/02/02 06:50:23;;;;;;;;;;;8.30;99.90;;;6.72;100.00;100592.16;5070712;28;19974;-89
2022/02/02 06:52:57;;;;;;;;;;;8.40;99.90;;;6.79;100.00;100594.06;5071314;28;19976;-88
2022/02/02 06:55:33;;;;;;;;;;;8.40;99.90;;;6.83;100.00;100598.19;5059872;28;19947;-88
2022/02/02 06:58:14;;;;;;;;;;;8.40;99.90;;;6.81;100.00;100599.31;5050883;28;20382;-87
2022/02/02 07:00:58;;;;;;;;;;;8.40;99.90;;;6.80;100.00;100601.19;5054693;28;20019;-87
2022/02/02 07:03:54;;;;;;;;;;;8.40;99.90;;;6.83;100.00;100600.88;5060425;28;20367;-87
2022/02/02 07:06:36;;;;;;;;;;;8.40;99.90;;;6.84;100.00;100602.56;5070169;28;19931;-89
2022/02/02 07:09:17;;;;;;;;;;;8.40;99.90;;;6.84;100.00;100615.25;5068647;28;19970;-89
2022/02/02 07:11:59;;;;;;;;;;;8.40;99.90;;;6.82;100.00;100634.34;5067315;28;19979;-87
2022/02/02 07:14:38;;;;;;;;;;;8.40;99.90;;;6.85;100.00;100627.75;5069803;28;19928;-87
2022/02/02 07:17:19;;;;;;;;;;;8.40;99.90;;;6.79;100.00;100631.09;5070990;28;19928;-86
2022/02/02 07:19:59;;;;;;;;;;;8.40;99.90;;;6.80;100.00;100649.03;5069750;28;19928;-86
2022/02/02 07:22:48;;;;;;;;;;;8.40;99.90;;;6.79;100.00;100661.69;5069131;28;19928;-85
2022/02/02 07:28:14;;;;;;;;;;;8.30;99.90;;;6.65;100.00;100657.69;5106512;27;20512;-85
2022/02/02 07:30:52;;;;;;;;;;;8.30;99.90;;;6.67;100.00;100668.34;5099990;28;20389;-85
2022/02/02 07:33:25;;;;;;;;;;;8.30;99.90;;;6.59;100.00;100669.13;5086167;28;20015;-85
2022/02/02 07:36:02;;;;;;;;;;;8.30;99.90;;;6.50;100.00;100669.22;5084575;28;20524;-87
2022/02/02 07:38:39;;;;;;;;;;;8.30;99.90;;;6.36;100.00;100670.56;5086695;28;19932;-86
2022/02/02 07:41:08;;;;;;;;;;;8.20;99.90;;;6.37;100.00;100669.59;5085806;28;19935;-86
2022/02/02 07:43:41;;;;;;;;;;;8.20;99.90;;;6.43;100.00;100668.97;5084119;28;20018;-86
2022/02/02 07:46:09;;;;;;;;;;;8.30;99.90;;;6.51;100.00;100696.09;5095904;28;19928;-86
2022/02/02 07:48:37;;;;;;;;;;;8.30;99.90;;;6.50;100.00;100683.56;5100492;28;19928;-86
2022/02/02 07:51:05;;;;;;;;;;;8.30;99.90;;;6.54;100.00;100686.81;5085166;28;19931;-86
2022/02/02 07:53:38;;;;;;;;;;;8.30;99.90;;;6.59;100.00;100684.53;5084995;28;19928;-86
2022/02/02 07:56:11;;;;;;;;;;;8.30;99.90;;;6.59;100.00;100692.63;5084899;28;19935;-85
2022/02/02 07:58:42;;;;;;;;;;;8.30;99.90;;;6.56;100.00;100685.66;5084431;28;20318;-85
2022/02/02 08:01:09;;;;;;;;;;;8.40;99.90;;;6.53;100.00;100685.97;5091150;28;20359;-85
2022/02/02 08:03:42;;;;;;;;;;;8.40;99.90;;;6.56;100.00;100684.81;5084868;28;20456;-85
2022/02/02 08:06:11;;;;;;;;;;;8.40;99.90;;;6.59;100.00;100690.78;5084347;28;19932;-85
2022/02/02 08:08:51;;;;;;;;;;;8.40;99.90;;;6.62;100.00;100695.84;5082600;28;19928;-84
2022/02/02 08:11:28;;;;;;;;;;;8.40;99.90;;;6.61;100.00;100688.75;5080308;28;19932;-83
2022/02/02 08:13:59;;;;;;;;;;;8.40;99.90;;;6.69;100.00;100695.25;5069141;28;20023;-84
2022/02/02 08:16:27;;;;;;;;;;;8.40;99.90;;;6.70;100.00;100692.41;5084156;28;19932;-83
2022/02/02 08:18:54;;;;;;;;;;;8.40;99.90;;;6.66;100.00;100690.97;5065420;28;19936;-84
2022/02/02 08:21:22;;;;;;;;;;;8.40;99.90;;;6.68;100.00;100698.94;5064668;28;19956;-84
2022/02/02 08:23:49;;;;;;;;;;;8.40;99.90;;;6.65;100.00;100711.78;5063962;28;19933;-84
2022/02/02 08:26:17;;;;;;;;;;;8.40;99.90;;;6.73;100.00;100707.47;5065078;28;19979;-84
2022/02/02 08:28:45;;;;;;;;;;;8.50;99.90;;;6.80;100.00;100716.66;5065491;28;19928;-84
2022/02/02 08:31:14;;;;;;;;;;;8.50;99.90;;;6.88;100.00;100721.28;5065074;28;20393;-83
2022/02/02 08:33:45;;;;;;;;;;;8.50;99.90;;;6.96;100.00;100714.06;5065199;28;20023;-84
2022/02/02 08:36:15;;;;;;;;;;;8.50;99.90;;;6.97;100.00;100732.03;5065106;28;19928;-84
2022/02/02 08:38:55;;;;;;;;;;;8.60;99.90;;;6.99;100.00;100730.00;5056033;28;19936;-84
2022/02/02 08:41:28;;;;;;;;;;;8.60;99.90;;;7.00;100.00;100725.44;5051170;28;19928;-84
2022/02/02 08:43:59;;;;;;;;;;;8.60;99.90;;;6.99;100.00;100746.25;5052004;28;20396;-84
2022/02/02 08:46:32;;;;;;;;;;;8.70;99.90;;;7.02;100.00;100751.31;5051578;28;19936;-84
2022/02/02 08:49:00;;;;;;;;;;;8.70;99.90;;;7.02;100.00;100762.16;5051422;28;19929;-84
2022/02/02 08:51:31;;;;;;;;;;;8.70;99.90;;;7.07;100.00;100761.69;5050058;28;20400;-84
2022/02/02 08:54:10;;;;;;;;;;;8.70;99.90;;;7.17;100.00;100767.03;5050318;28;19979;-84
2022/02/02 08:57:10;;;;;;;;;;;8.80;99.90;;;7.16;100.00;100784.25;5049395;28;20512;-84
2022/02/02 08:59:47;;;;;;;;;;;8.80;99.90;;;7.14;100.00;100784.44;5050084;28;20412;-84
2022/02/02 09:02:20;;;;;;;;;;;8.80;99.90;;;7.18;100.00;100777.69;5050322;28;19932;-84
2022/02/02 09:07:32;;;;;;;;;;;8.80;99.90;;;7.22;100.00;100779.09;5050315;28;20387;-85
2022/02/02 09:10:04;;;;;;;;;;;8.90;99.90;;;7.19;100.00;100778.53;5051037;28;19940;-83
2022/02/02 09:23:33;;;;;;;;;;;8.90;99.90;;;7.38;100.00;100789.19;5031422;28;20378;-84
2022/02/02 09:26:25;;;;;;;;;;;8.90;99.90;;;7.39;100.00;100792.78;5034915;28;19929;-85
2022/02/02 09:31:51;;;;;;;;;;;9.00;99.90;;;7.38;100.00;100777.50;5050414;28;20047;-84
2022/02/02 09:34:21;;;;;;;;;;;9.00;99.90;;;7.47;100.00;100778.44;5050914;28;19998;-85
2022/02/02 09:36:50;;;;;;;;;;;9.00;99.90;;;7.44;100.00;100788.59;5050954;28;20019;-85
2022/02/02 09:39:21;;;;;;;;;;;9.00;99.90;;;7.46;100.00;100790.25;5050761;28;19932;-85
2022/02/02 09:41:50;;;;;;;;;;;9.00;99.90;;;7.48;100.00;100804.50;5049706;28;19929;-86
2022/02/02 09:44:22;;;;;;;;;;;9.00;99.90;;;7.48;100.00;100807.19;5051179;28;20337;-85
2022/02/02 09:47:03;;;;;;;;;;;9.10;99.90;;;7.52;100.00;100816.72;5050546;28;19928;-85
2022/02/02 09:49:38;;;;;;;;;;;9.10;99.90;;;7.55;100.00;100813.69;5049518;28;19951;-86
2022/02/02 09:52:11;;;;;;;;;;;9.20;99.90;;;7.57;100.00;100817.94;5047214;28;20310;-86
2022/02/02 09:54:40;;;;;;;;;;;9.10;99.90;;;7.59;100.00;100807.78;5050778;28;19928;-84
2022/02/02 09:59:58;;;;;;;;;;;9.20;99.90;;;7.66;100.00;100816.16;5050376;28;19929;-84
2022/02/02 10:02:33;;;;;;;;;;;9.20;99.90;;;7.76;100.00;100835.84;5049987;28;20010;-83
2022/02/02 10:05:10;;;;;;;;;;;9.20;99.90;;;7.77;100.00;100829.44;5048683;28;20377;-82
2022/02/02 10:08:05;;;;;;;;;;;9.30;99.90;;;7.74;100.00;100840.59;5049742;28;19925;-84
2022/02/02 10:13:23;;;;;;;;;;;9.30;99.90;;;7.78;100.00;100850.09;5041762;28;19936;-83
2022/02/02 10:15:52;;;;;;;;;;;9.40;99.90;;;7.78;100.00;100852.81;5056412;28;20695;-83
2022/02/02 10:18:22;;;;;;;;;;;9.30;99.90;;;7.71;100.00;100857.16;5054897;28;20385;-83
2022/02/02 10:20:55;;;;;;;;;;;9.30;99.90;;;7.70;100.00;100860.03;5062433;28;20020;-83
2022/02/02 10:23:26;;;;;;;;;;;9.40;99.90;;;7.74;100.00;100848.72;5054365;28;19966;-83
2022/02/02 10:25:58;;;;;;;;;;;9.40;99.90;;;7.70;100.00;100858.16;5050600;28;19929;-83
2022/02/02 10:28:29;;;;;;;;;;;9.40;99.90;;;7.76;100.00;100851.28;5045897;28;20002;-84
2022/02/02 10:31:02;;;;;;;;;;;9.40;99.90;;;7.79;100.00;100849.09;5049204;28;19924;-84
2022/02/02 10:33:30;;;;;;;;;;;9.40;99.90;;;7.82;100.00;100843.38;5054809;28;19935;-83
2022/02/02 10:36:04;;;;;;;;;;;9.40;99.90;;;7.75;100.00;100847.72;5050536;28;20296;-84
2022/02/02 10:38:39;;;;;;;;;;;9.40;99.90;;;7.78;100.00;100841.97;5042600;28;19925;-83
2022/02/02 10:41:16;;;;;;;;;;;9.40;99.90;;;7.89;100.00;100850.84;5050991;28;20588;-83
2022/02/02 10:43:48;;;;;;;;;;;9.50;99.90;;;7.94;100.00;100859.34;5047270;28;19929;-83
2022/02/02 10:46:22;;;;;;;;;;;9.50;99.90;;;7.99;100.00;100859.72;5046819;28;19929;-83
2022/02/02 10:48:54;;;;;;;;;;;9.50;99.90;;;7.98;100.00;100866.16;5048195;28;19932;-83
2022/02/02 10:51:35;;;;;;;;;;;9.50;99.90;;;7.97;100.00;100859.03;5044588;28;19933;-83
2022/02/02 10:54:16;;;;;;;;;;;9.50;99.90;;;7.98;100.00;100867.00;5048557;28;19925;-83
2022/02/02 10:56:50;;;;;;;;;;;9.60;99.90;;;7.95;99.76;100877.31;5049325;28;19937;-83
2022/02/02 10:59:38;;;;;;;;;;;9.60;99.90;;;7.97;100.00;100870.72;5049560;28;20036;-83
2022/02/02 11:07:37;;;;;;;;;;;9.60;99.90;;;8.03;99.54;100880.94;5057175;28;19935;-83
2022/02/02 11:10:08;;;;;;;;;;;9.60;99.90;;;8.05;99.29;100880.75;5061275;28;20028;-83
2022/02/02 11:12:38;;;;;;;;;;;9.60;99.90;;;8.10;100.00;100883.84;5029359;28;19940;-84
2022/02/02 11:15:16;;;;;;;;;;;9.60;99.90;;;8.07;98.95;100876.03;5029580;28;19936;-81
2022/02/02 11:17:55;;;;;;;;;;;9.60;99.90;;;8.07;99.15;100876.03;5048705;28;19925;-84
2022/02/02 11:20:23;;;;;;;;;;;9.60;99.90;;;8.07;99.60;100884.16;5047822;28;19932;-82
2022/02/02 11:22:53;;;;;;;;;;;9.60;99.90;;;8.09;99.87;100884.88;5049161;28;19975;-82
2022/02/02 11:25:37;;;;;;;;;;;9.70;99.90;;;8.15;99.94;100883.41;5049207;28;19929;-83
2022/02/02 11:28:07;;;;;;;;;;;9.70;99.90;;;8.20;99.39;100884.59;5029210;28;19940;-83
2022/02/02 11:30:40;;;;;;;;;;;9.70;99.90;;;8.25;99.26;100891.41;5034138;28;19932;-83
2022/02/02 11:33:20;;;;;;;;;;;9.70;99.90;;;8.30;98.96;100886.34;5049234;28;19935;-82
2022/02/02 11:35:50;;;;;;;;;;;9.80;99.90;;;8.28;98.61;100893.78;5041807;28;19932;-82
2022/02/02 11:38:36;;;;;;;;;;;9.80;99.90;;;8.34;99.42;100890.44;5049058;28;19987;-83
2022/02/02 11:41:31;;;;;;;;;;;9.80;99.90;;;8.34;98.82;100887.72;5048143;28;19928;-83
2022/02/02 11:44:05;;;;;;;;;;;9.90;99.90;;;8.34;97.90;100893.13;5049532;28;19925;-82
2022/02/02 11:47:04;;;;;;;;;;;9.90;99.90;;;8.33;97.98;100886.88;5048507;28;19925;-83
2022/02/02 11:49:49;;;;;;;;;;;9.90;99.90;;;8.41;97.00;100894.19;5043966;28;20047;-82
2022/02/02 11:52:44;;;;;;;;;;;9.90;99.90;;;8.47;97.62;100904.44;5048271;28;19974;-83
2022/02/02 11:55:48;;;;;;;;;;;9.90;99.90;;;8.49;97.76;100907.88;5035021;28;19928;-82
2022/02/02 11:58:33;;;;;;;;;;;10.00;99.90;;;8.55;97.58;100906.38;5016441;28;19933;-83
2022/02/02 12:01:14;;;;;;;;;;;10.00;99.90;;;8.56;97.95;100898.03;5046921;28;20034;-82
2022/02/02 12:04:06;;;;;;;;;;;10.00;99.90;;;8.57;97.86;100901.63;5048272;28;20024;-83
2022/02/02 12:06:56;;;;;;;;;;;10.00;99.90;;;8.57;98.09;100902.47;5055565;28;19932;-82
2022/02/02 12:09:38;;;;;;;;;;;10.00;99.90;;;8.53;97.79;100897.50;5048756;28;19925;-83
2022/02/02 12:48:57;;;;;;;;;;;10.10;99.90;;;8.60;96.59;100902.16;5047192;28;20399;-84
2022/02/02 12:54:41;;;;;;;;;;;10.10;99.90;;;8.64;97.65;100896.38;5051946;28;19970;-83
2022/02/02 12:57:06;;;;;;;;;;;10.10;99.90;;;8.63;97.42;100910.97;5051639;28;19931;-83
2022/02/02 13:02:26;;;;;;;;;;;10.10;99.90;;;8.53;95.90;100909.25;5034114;28;20382;-82
2022/02/02 13:04:55;;;;;;;;;;;10.10;99.90;;;8.55;95.16;100907.22;5049575;28;19928;-83
2022/02/02 13:07:27;;;;;;;;;;;10.10;99.90;;;8.60;95.24;100910.28;5051068;28;19936;-82
2022/02/02 13:09:54;;;;;;;;;;;10.10;99.90;;;8.60;95.65;100910.28;5051393;28;19931;-84
2022/02/02 13:12:25;;;;;;;;;;;10.10;99.90;;;8.64;95.63;100899.94;5049289;28;20296;-83
2022/02/02 13:17:56;;;;;;;;;;;10.10;99.90;;;8.57;94.24;100899.75;5050930;28;19929;-84
2022/02/02 13:20:39;;;;;;;;;;;10.10;99.90;;;8.51;94.02;100899.53;5050488;28;20385;-84
2022/02/02 13:23:13;;;;;;;;;;;10.10;99.90;;;8.51;94.68;100900.41;5042308;28;19928;-84
2022/02/02 13:25:42;;;;;;;;;;;10.10;99.90;;;8.63;94.90;100902.84;5051198;28;19944;-83
2022/02/02 13:28:10;;;;;;;;;;;10.10;99.90;;;8.65;93.59;100898.09;5050683;28;20305;-85
2022/02/02 13:30:44;;;;;;;;;;;10.10;99.90;;;8.64;93.41;100889.09;5050660;28;19935;-89
2022/02/02 13:33:17;;;;;;;;;;;10.10;99.90;;;8.73;94.35;100881.84;5049988;28;20003;-88
2022/02/02 13:35:57;;;;;;;;;;;10.20;99.90;;;8.83;95.32;100896.13;5049965;28;19924;-88
2022/02/02 13:38:42;;;;;;;;;;;10.20;99.90;;;8.90;94.56;100897.19;5050854;28;20023;-88
2022/02/02 13:44:09;;;;;;;;;;;10.30;99.90;;;8.96;95.06;100904.66;5050988;28;20357;-87
2022/02/02 13:46:59;;;;;;;;;;;10.30;99.90;;;8.96;94.45;100898.38;5066076;28;19928;-88
2022/02/02 13:49:44;;;;;;;;;;;10.30;99.90;;;8.87;92.62;100905.66;5050443;28;19971;-88
2022/02/02 13:52:49;;;;;;;;;;;10.30;99.90;;;8.84;94.01;100918.72;5049250;28;19974;-88
2022/02/02 13:55:30;;;;;;;;;;;10.40;99.90;;;8.79;95.08;100919.19;5050380;28;19940;-87
2022/02/02 13:58:27;;;;;;;;;;;10.30;99.90;;;8.77;94.53;100932.06;5030650;28;19933;-88
2022/02/02 14:01:03;;;;;;;;;;;10.30;99.90;;;8.78;93.68;100925.63;5034181;28;19925;-89
2022/02/02 14:03:56;;;;;;;;;;;10.30;99.90;;;8.74;93.54;100927.81;5030813;28;19936;-89
2022/02/02 14:06:38;;;;;;;;;;;10.20;99.90;;;8.71;91.03;100927.28;5037000;28;19932;-88
2022/02/02 14:09:13;;;;;;;;;;;10.30;99.90;;;8.69;92.34;100934.75;5079467;22;19990;-86
2022/02/02 14:26:06;;;;;;;;;;;10.10;99.50;;;8.51;88.77;100937.50;5049814;28;20014;-86
2022/02/02 14:31:26;;;;;;;;;;;10.10;99.60;;;8.46;89.61;100935.28;4992511;28;19929;-86
2022/02/02 14:33:55;;;;;;;;;;;10.10;99.70;;;8.49;91.62;100934.13;5050374;28;20472;-86
2022/02/02 14:36:26;;;;;;;;;;;10.10;99.90;;;8.47;91.28;100942.41;5048841;28;19935;-86
2022/02/02 14:39:00;;;;;;;;;;;10.00;99.40;;;8.48;91.87;100940.56;5031844;28;19929;-86
2022/02/02 14:41:35;;;;;;;;;;;10.00;99.90;;;8.46;89.96;100943.44;5049535;28;20406;-86
2022/02/02 14:44:07;;;;;;;;;;;10.00;98.60;;;8.48;89.26;100949.53;5050140;28;20313;-87
2022/02/02 14:46:38;;;;;;;;;;;10.00;99.40;;;8.47;88.53;100957.84;5049745;28;19932;-86
2022/02/02 14:49:10;;;;;;;;;;;10.00;98.60;;;8.45;87.73;100957.16;5029658;28;19925;-87
2022/02/02 14:51:48;;;;;;;;;;;10.10;97.40;;;8.49;89.55;100959.41;5047741;28;20024;-92
2022/02/02 15:27:33;;;;;;;;;;;10.10;99.90;;;8.50;90.43;101001.78;5001212;28;19929;-85
2022/02/02 15:30:12;;;;;;;;;;;10.10;99.90;;;8.46;91.96;100999.56;5028331;28;19925;-86
2022/02/02 15:32:46;;;;;;;;;;;10.00;99.90;;;8.47;92.96;100996.66;5044150;28;19928;-87
2022/02/02 15:35:13;;;;;;;;;;;10.00;99.90;;;8.41;90.77;100997.25;5045716;28;20414;-88
2022/02/02 15:37:51;;;;;;;;;;;9.90;99.90;;;8.36;89.90;101005.06;5049067;28;19960;-90
2022/02/02 15:40:22;;;;;;;;;;;9.90;99.90;;;8.28;90.50;100991.41;5047892;28;19943;-90
2022/02/02 15:42:58;;;;;;;;;;;9.80;99.90;;;8.26;91.95;100985.28;5049434;28;19929;-86
2022/02/02 15:59:14;;;;;;;;;;;9.50;99.90;;;8.07;93.96;100995.31;5051725;28;19929;-88
2022/02/02 16:04:36;;;;;;;;;;;9.40;99.90;;;7.98;93.24;100997.09;5046980;28;19952;-87
2022/02/02 16:07:06;;;;;;;;;;;9.40;99.90;;;7.95;94.28;100992.00;5052374;28;19960;-88
2022/02/02 16:09:43;;;;;;;;;;;9.30;99.90;;;7.94;94.76;100992.13;5048850;28;19935;-92
2022/02/02 16:12:15;;;;;;;;;;;9.30;99.90;;;7.91;94.67;100989.75;5051019;28;19925;-91
2022/02/02 16:14:48;;;;;;;;;;;9.20;99.90;;;7.90;95.09;100988.91;5052777;28;19929;-91
2022/02/02 16:17:39;;;;;;;;;;;9.20;99.90;;;7.81;95.60;100998.81;5034589;28;19936;-91
2022/02/02 16:31:49;;;;;;;;;;;9.10;99.90;;;7.46;96.32;101023.16;5044242;28;19928;-90
2022/02/02 16:37:04;;;;;;;;;;;9.00;99.90;;;7.40;96.88;101020.03;5051787;28;19931;-91
2022/02/02 16:39:34;;;;;;;;;;;9.00;99.90;;;7.38;97.27;101022.03;5023934;28;19967;-91
2022/02/02 16:44:46;;;;;;;;;;;8.90;99.90;;;7.33;98.02;101027.09;5049092;28;19924;-92
2022/02/02 16:47:14;;;;;;;;;;;8.90;99.90;;;7.29;98.28;101030.22;5044987;28;19929;-91
2022/02/02 16:49:42;;;;;;;;;;;8.80;99.90;;;7.16;98.43;101030.56;5047893;28;20043;-90
2022/02/02 16:52:09;;;;;;;;;;;8.80;99.90;;;7.09;99.08;101030.31;5050589;28;19929;-91
2022/02/02 16:54:41;;;;;;;;;;;8.80;99.90;;;7.08;99.39;101025.91;5051926;28;19974;-90
2022/02/02 16:57:31;;;;;;;;;;;8.80;99.90;;;7.03;99.58;101026.38;5051684;28;20312;-91
2022/02/02 17:30:30;;;;;;;;;;;8.50;99.90;;;6.58;100.00;101048.72;5031457;28;19990;-91
2022/02/02 17:33:02;;;;;;;;;;;8.40;99.90;;;6.65;100.00;101062.50;5049101;28;20400;-85
2022/02/02 17:35:44;;;;;;;;;;;8.40;99.90;;;6.62;100.00;101052.81;5050454;28;19933;-92
2022/02/02 17:38:17;;;;;;;;;;;8.30;99.90;;;6.61;100.00;101061.94;5050196;28;20009;-84
2022/02/02 18:01:08;;;;;;;;;;;8.30;99.90;;;6.61;100.00;101063.81;5028349;28;19929;-85
2022/02/02 18:03:57;;;;;;;;;;;8.30;99.90;;;6.61;100.00;101067.34;5029558;28;19952;-85
2022/02/02 18:20:17;;;;;;;;;;;8.30;99.90;;;6.49;100.00;101073.91;4967659;28;19954;-85
2022/02/02 18:22:49;;;;;;;;;;;8.30;99.90;;;6.40;100.00;101069.41;5018458;28;20024;-86
2022/02/02 18:25:24;;;;;;;;;;;8.20;99.90;;;6.46;100.00;101074.22;5028918;28;19925;-84